createdAt,value
2023-01-10T00:02:34.355Z,5.18
2023-01-10T00:07:37.269Z,5.20
2023-01-10T00:12:57.722Z,5.21
2023-01-10T00:18:01.725Z,5.21
2023-01-10T00:23:05.429Z,5.19
2023-01-10T00:28:19.520Z,5.17
2023-01-10T00:33:23.825Z,5.18
2023-01-10T00:38:26.554Z,5.13
2023-01-10T00:43:46.669Z,5.08
2023-01-10T00:48:50.623Z,5.11
2023-01-10T00:53:53.266Z,5.18
2023-01-10T00:58:55.899Z,5.17
2023-01-10T01:04:00.372Z,5.20
2023-01-10T01:09:03.051Z,5.20
2023-01-10T01:14:05.760Z,5.17
2023-01-10T01:19:09.791Z,5.16
2023-01-10T01:24:12.623Z,5.11
2023-01-10T01:29:17.309Z,5.05
2023-01-10T01:34:22.205Z,5.08
2023-01-10T01:39:24.958Z,5.18
2023-01-10T01:44:31.626Z,5.22
2023-01-10T01:49:38.195Z,5.17
2023-01-10T01:54:40.955Z,5.15
2023-01-10T01:59:46.229Z,5.16
2023-01-10T02:04:53.076Z,5.14
2023-01-10T02:09:58.045Z,5.13
2023-01-10T02:15:01.111Z,5.16
2023-01-10T02:20:08.133Z,5.19
2023-01-10T02:25:30.958Z,5.19
2023-01-10T02:30:42.945Z,5.19
2023-01-10T02:36:03.504Z,5.16
2023-01-10T02:41:16.171Z,5.18
2023-01-10T02:46:24.881Z,5.18
2023-01-10T02:51:30.696Z,5.18
2023-01-10T02:56:58.164Z,5.18
2023-01-10T03:02:04.197Z,5.17
2023-01-10T03:07:09.555Z,5.18
2023-01-10T03:12:16.194Z,5.18
2023-01-10T03:17:20.707Z,5.18
2023-01-10T03:22:25.787Z,5.18
2023-01-10T03:27:33.739Z,5.17
2023-01-10T03:32:36.694Z,5.18
2023-01-10T03:37:45.434Z,5.16
2023-01-10T03:43:04.883Z,5.15
2023-01-10T03:48:08.823Z,5.14
2023-01-10T03:53:14.303Z,5.10
2023-01-10T03:58:21.646Z,5.06
2023-01-10T04:03:24.476Z,5.01
2023-01-10T04:08:28.618Z,4.99
2023-01-10T04:13:31.512Z,4.96
2023-01-10T04:18:34.358Z,4.92
2023-01-10T04:23:38.507Z,4.91
2023-01-10T04:28:41.325Z,4.90
2023-01-10T04:33:44.105Z,4.89
2023-01-10T04:38:48.241Z,4.95
2023-01-10T04:43:51.024Z,4.89
2023-01-10T04:48:53.878Z,4.84
2023-01-10T04:53:58.069Z,4.84
2023-01-10T04:59:00.829Z,4.78
2023-01-10T05:04:03.908Z,4.70
2023-01-10T05:09:08.310Z,4.67
2023-01-10T05:14:11.065Z,4.69
2023-01-10T05:19:13.819Z,4.69
2023-01-10T05:24:17.968Z,4.69
2023-01-10T05:29:20.739Z,4.69
2023-01-10T05:34:23.510Z,4.71
2023-01-10T05:39:27.668Z,4.72
2023-01-10T05:44:30.472Z,4.75
2023-01-10T05:49:34.256Z,4.76
2023-01-10T05:54:38.548Z,4.78
2023-01-10T05:59:41.399Z,4.79
2023-01-10T06:04:44.397Z,4.78
2023-01-10T06:09:48.675Z,4.78
2023-01-10T06:14:51.447Z,4.80
2023-01-10T06:19:54.206Z,4.81
2023-01-10T06:24:58.489Z,4.79
2023-01-10T06:30:01.441Z,4.78
2023-01-10T06:35:05.128Z,4.85
2023-01-10T06:40:10.966Z,4.80
2023-01-10T06:45:13.930Z,4.79
2023-01-10T06:50:16.996Z,4.83
2023-01-10T06:55:21.087Z,4.80
2023-01-10T07:00:24.924Z,4.81
2023-01-10T07:05:27.735Z,4.85
2023-01-10T07:10:32.469Z,4.85
2023-01-10T07:15:35.240Z,4.92
2023-01-10T07:20:38.056Z,4.88
2023-01-10T07:25:42.423Z,4.92
2023-01-10T07:30:45.196Z,4.89
2023-01-10T07:35:48.014Z,4.89
2023-01-10T07:40:52.166Z,4.92
2023-01-10T07:45:54.947Z,6.03
2023-01-10T07:50:58.162Z,5.47
2023-01-10T07:56:03.346Z,5.56
2023-01-10T08:01:07.116Z,5.45
2023-01-10T08:06:11.296Z,5.87
2023-01-10T08:11:15.438Z,5.49
2023-01-10T08:16:20.740Z,5.96
2023-01-10T08:21:24.054Z,6.10
2023-01-10T08:26:28.183Z,5.31
2023-01-10T08:31:30.961Z,5.30
2023-01-10T08:36:33.708Z,5.38
2023-01-10T08:41:39.507Z,5.40
2023-01-10T08:46:42.339Z,5.40
2023-01-10T08:51:45.237Z,5.34
2023-01-10T08:56:49.300Z,5.33
2023-01-10T09:01:52.043Z,5.37
2023-01-10T09:06:54.817Z,5.39
2023-01-10T09:11:58.945Z,5.42
2023-01-10T09:17:01.686Z,5.45
2023-01-10T09:22:04.428Z,5.49
2023-01-10T09:27:08.552Z,5.56
2023-01-10T09:32:11.415Z,5.55
2023-01-10T09:37:14.176Z,5.57
2023-01-10T09:42:35.489Z,5.61
2023-01-10T09:47:44.549Z,5.65
2023-01-10T09:52:50.389Z,5.68
2023-01-10T09:57:56.791Z,5.65
2023-01-10T10:02:59.725Z,5.69
2023-01-10T10:08:03.368Z,5.75
2023-01-10T10:13:26.877Z,5.80
2023-01-10T10:18:40.221Z,5.86
2023-01-10T10:24:01.118Z,5.90
2023-01-10T10:29:26.410Z,5.97
2023-01-10T10:34:36.530Z,5.97
2023-01-10T10:39:43.793Z,6.00
2023-01-10T10:44:52.237Z,6.07
2023-01-10T10:49:59.595Z,6.15
2023-01-10T10:55:02.598Z,6.16
2023-01-10T11:00:09.196Z,6.17
2023-01-10T11:05:18.107Z,6.17
2023-01-10T11:10:35.844Z,6.23
2023-01-10T11:15:44.424Z,6.10
2023-01-10T11:20:52.622Z,6.13
2023-01-10T11:25:55.450Z,6.32
2023-01-10T11:30:59.903Z,6.36
2023-01-10T11:36:05.432Z,6.41
2023-01-10T11:41:24.790Z,6.46
2023-01-10T11:46:28.967Z,6.48
2023-01-10T11:51:34.569Z,6.52
2023-01-10T11:56:39.856Z,6.59
2023-01-10T12:01:46.888Z,6.49
2023-01-10T12:06:52.093Z,6.65
2023-01-10T12:12:03.095Z,6.57
2023-01-10T12:17:07.296Z,6.65
2023-01-10T12:22:13.410Z,6.72
2023-01-10T12:27:18.181Z,6.77
2023-01-10T12:32:25.316Z,6.75
2023-01-10T12:37:32.931Z,6.80
2023-01-10T12:43:05.385Z,6.79
2023-01-10T12:48:15.243Z,6.82
2023-01-10T12:53:26.805Z,6.87
2023-01-10T12:58:37.007Z,6.87
2023-01-10T13:03:41.410Z,6.76
2023-01-10T13:08:45.455Z,6.74
2023-01-10T13:13:52.463Z,6.78
2023-01-10T13:19:06.165Z,6.71
2023-01-10T13:24:20.101Z,6.77
2023-01-10T13:29:24.512Z,6.68
2023-01-10T13:34:34.090Z,6.75
2023-01-10T13:39:38.194Z,6.68
2023-01-10T13:45:15.716Z,6.72
2023-01-10T13:50:55.061Z,6.67
2023-01-10T13:55:58.042Z,6.72
2023-01-10T14:01:19.550Z,6.55
2023-01-10T14:06:54.160Z,6.58
2023-01-10T14:11:59.584Z,6.64
2023-01-10T14:17:14.169Z,6.52
2023-01-10T14:22:27.409Z,6.59
2023-01-10T14:27:38.965Z,6.52
2023-01-10T14:32:43.741Z,6.47
2023-01-10T14:37:53.196Z,6.45
2023-01-10T14:42:58.461Z,6.40
2023-01-10T14:48:01.264Z,6.45
2023-01-10T14:53:05.405Z,6.39
2023-01-10T14:58:12.855Z,6.35
2023-01-10T15:03:19.508Z,6.36
2023-01-10T15:08:25.462Z,6.26
2023-01-10T15:13:29.396Z,6.30
2023-01-10T15:18:36.150Z,6.17
2023-01-10T15:23:42.258Z,6.24
2023-01-10T15:28:48.540Z,6.17
2023-01-10T15:33:56.551Z,6.14
2023-01-10T15:39:00.785Z,6.13
2023-01-10T15:44:25.318Z,6.08
2023-01-10T15:49:28.631Z,6.10
2023-01-10T15:54:36.427Z,6.05
2023-01-10T15:59:41.347Z,6.00
2023-01-10T16:04:44.726Z,5.99
2023-01-10T16:09:57.662Z,5.94
2023-01-10T16:15:00.635Z,5.94
2023-01-10T16:20:03.429Z,5.97
2023-01-10T16:25:13.200Z,5.91
2023-01-10T16:30:24.053Z,5.87
2023-01-10T16:35:27.333Z,5.87
2023-01-10T16:40:36.637Z,5.87
2023-01-10T16:45:39.661Z,5.80
2023-01-10T16:50:43.143Z,5.87
2023-01-10T16:55:49.203Z,5.86
2023-01-10T17:00:53.484Z,5.84
2023-01-10T17:05:56.551Z,5.80
2023-01-10T17:11:06.435Z,5.80
2023-01-10T17:16:09.541Z,5.81
2023-01-10T17:21:15.520Z,5.85
2023-01-10T17:26:20.447Z,5.92
2023-01-10T17:31:23.435Z,5.88
2023-01-10T17:36:29.063Z,5.93
2023-01-10T17:41:33.277Z,5.93
2023-01-10T17:46:36.050Z,5.94
2023-01-10T17:51:39.465Z,6.01
2023-01-10T17:56:43.650Z,6.06
2023-01-10T18:01:46.578Z,6.01
2023-01-10T18:06:52.105Z,6.06
2023-01-10T18:11:56.238Z,6.00
2023-01-10T18:16:59.028Z,6.02
2023-01-10T18:22:02.006Z,5.95
2023-01-10T18:27:06.186Z,5.89
2023-01-10T18:32:09.415Z,5.86
2023-01-10T18:37:12.330Z,5.80
2023-01-10T18:42:16.476Z,5.75
2023-01-10T18:47:20.346Z,5.76
2023-01-10T18:52:24.423Z,5.70
2023-01-10T18:57:30.550Z,5.65
2023-01-10T19:02:33.605Z,5.60
2023-01-10T19:07:36.464Z,5.60
2023-01-10T19:12:42.307Z,5.55
2023-01-10T19:17:45.061Z,5.57
2023-01-10T19:22:48.049Z,5.56
2023-01-10T19:27:52.227Z,5.53
2023-01-10T19:32:56.486Z,5.50
2023-01-10T19:37:59.203Z,5.46
2023-01-10T19:43:03.325Z,5.47
2023-01-10T19:48:06.540Z,5.46
2023-01-10T19:53:09.273Z,5.46
2023-01-10T19:58:13.388Z,5.46
2023-01-10T20:03:16.130Z,5.47
2023-01-10T20:08:18.972Z,5.55
2023-01-10T20:13:23.079Z,5.54
2023-01-10T20:18:26.032Z,5.52
2023-01-10T20:23:31.684Z,5.56
2023-01-10T20:28:35.813Z,5.67
2023-01-10T20:33:38.645Z,5.63
2023-01-10T20:38:41.719Z,5.64
2023-01-10T20:43:46.262Z,5.68
2023-01-10T20:48:50.680Z,5.64
2023-01-10T20:53:53.479Z,5.69
2023-01-10T20:58:57.733Z,5.73
2023-01-10T21:04:00.744Z,5.72
2023-01-10T21:09:04.205Z,5.75
2023-01-10T21:14:08.313Z,5.83
2023-01-10T21:19:13.493Z,5.82
2023-01-10T21:24:16.730Z,5.77
2023-01-10T21:29:20.956Z,5.86
2023-01-10T21:34:23.706Z,5.81
2023-01-10T21:39:26.554Z,5.78
2023-01-10T21:44:30.693Z,5.83
2023-01-10T21:49:33.491Z,5.91
2023-01-10T21:54:36.245Z,5.91
2023-01-10T21:59:41.539Z,5.96
2023-01-10T22:04:46.149Z,6.00
2023-01-10T22:09:50.532Z,6.07
2023-01-10T22:14:54.647Z,6.06
2023-01-10T22:19:57.499Z,6.19
2023-01-10T22:25:00.195Z,6.24
2023-01-10T22:30:05.038Z,6.24
2023-01-10T22:35:08.317Z,6.23
2023-01-10T22:40:12.408Z,6.33
2023-01-10T22:45:16.844Z,6.42
2023-01-10T22:50:19.824Z,6.56
2023-01-10T22:55:22.585Z,6.47
2023-01-10T23:00:26.692Z,6.54
2023-01-10T23:05:29.590Z,6.51
2023-01-10T23:10:32.351Z,6.58
2023-01-10T23:15:36.430Z,6.63
2023-01-10T23:20:41.689Z,6.64
2023-01-10T23:25:44.493Z,6.72
2023-01-10T23:30:48.535Z,6.80
2023-01-10T23:35:51.338Z,6.85
2023-01-10T23:40:54.102Z,6.89
2023-01-10T23:45:58.603Z,6.78
2023-01-10T23:51:01.609Z,6.72
2023-01-10T23:56:07.754Z,6.64
